Aeroporto :
LOGIN :

Iscrizione | Disclaimer

   EN    FR    IT 

 










Sommario :    VFR   VFR Marginale   IFR   IFR Intensivo   IFR Molto Intensivo
Visibilità : 
Base nubi : 
>= 8 km
>= 3000ft
5 / 8 km
1000 / 3000 ft
1500m / 5 km
500 / 1000 ft
800 / 1500m
200 / 500 ft
< 800m
< 200 ft
Simboli :   Temporali  Nebbia  Neve Forte  Precipitazioni Forti  Vento > 20 kt
SIGMETs :   Varie  Temporali  Ghiacco  Turbolenza  Onda orograficha  Ceneri Vulcaniche






- Altitudine del aeroporto : 1267 ft
- Codice IATA : CUF


LIMZ - Cuneo Levaldigi

ULTIMO METAR :
  • 141420Z AUTO 03004KT 360V070 9999 NCD 26/14 Q1021

METARs OBSOLETI :
  • 141350Z AUTO VRB02KT 9999 NCD 26/14 Q1021
  • 141320Z AUTO 05005KT 360V080 9999 NCD 25/15 Q1021
  • 141250Z AUTO 02004KT 350V070 9999 NCD 25/14 Q1022
  • 141220Z AUTO 01005KT 310V070 9999 NCD 25/15 Q1023
  • 141150Z AUTO 01004KT 330V060 9999 NCD 24/14 Q1023
  • 141120Z AUTO 06003KT 350V120 9999 NCD 24/14 Q1023
  • 141050Z AUTO 06004KT 010V110 9999 NCD 23/14 Q1024
  • 141020Z AUTO 04003KT 330V110 9999 NCD 23/15 Q1024
  • 140950Z AUTO 04003KT 280V090 9999 NCD 22/16 Q1024

TAF TAF LIMZ
Valido dal 14 a 12 ore il 15 a 12 ore UTC


141100Z 1412/1512 VRB04KT 9999 FEW050



MetMap, La meteo Aeronautica in un colpo d'occhio ! - Copyright ORBIFLY Dicembre 2007 - Disclaimer

ORBIFLY MET'MAP TEAM :

Programmazione e sviluppo : Alexandra Zaïnal
Concezione : Baudouin d'Aumeries
Supporto tecnico e logistico : Manuel Goepfert
Aiuto : Marc-Olivier Méhu
Aiuto per la traduzione : Arnaldo La Scala




FONTI E CREDITI :

   NOAA